sensor_id;sensor_type;location;lat;lon;timestamp;temperature;humidity
56512;DHT22;42408;53.238;5.686;2022-07-29T00:02:24;15.00;99.90
56512;DHT22;42408;53.238;5.686;2022-07-29T00:04:50;15.00;99.90
56512;DHT22;42408;53.238;5.686;2022-07-29T00:07:17;14.90;99.90
56512;DHT22;42408;53.238;5.686;2022-07-29T00:09:42;15.00;99.90
56512;DHT22;42408;53.238;5.686;2022-07-29T00:12:08;15.00;99.90
56512;DHT22;42408;53.238;5.686;2022-07-29T00:14:34;15.00;99.90
56512;DHT22;42408;53.238;5.686;2022-07-29T00:17:00;15.00;99.90
56512;DHT22;42408;53.238;5.686;2022-07-29T00:19:25;15.00;99.90
56512;DHT22;42408;53.238;5.686;2022-07-29T00:21:51;15.00;99.90
56512;DHT22;42408;53.238;5.686;2022-07-29T00:24:17;15.00;99.90
56512;DHT22;42408;53.238;5.686;2022-07-29T00:26:42;15.10;99.90
56512;DHT22;42408;53.238;5.686;2022-07-29T00:29:08;15.00;99.90
56512;DHT22;42408;53.238;5.686;2022-07-29T00:31:33;15.00;99.90
56512;DHT22;42408;53.238;5.686;2022-07-29T00:33:59;15.00;99.90
56512;DHT22;42408;53.238;5.686;2022-07-29T00:36:24;15.00;99.90
56512;DHT22;42408;53.238;5.686;2022-07-29T00:38:51;15.00;99.90
56512;DHT22;42408;53.238;5.686;2022-07-29T00:41:17;15.00;99.90
56512;DHT22;42408;53.238;5.686;2022-07-29T00:43:43;15.00;99.90
56512;DHT22;42408;53.238;5.686;2022-07-29T00:46:09;15.00;99.90
56512;DHT22;42408;53.238;5.686;2022-07-29T00:48:35;15.00;99.90
56512;DHT22;42408;53.238;5.686;2022-07-29T00:51:02;15.00;99.90
56512;DHT22;42408;53.238;5.686;2022-07-29T00:53:30;15.00;99.90
56512;DHT22;42408;53.238;5.686;2022-07-29T00:55:56;15.10;99.90
56512;DHT22;42408;53.238;5.686;2022-07-29T00:58:23;15.00;99.90
56512;DHT22;42408;53.238;5.686;2022-07-29T01:00:48;15.00;99.90
56512;DHT22;42408;53.238;5.686;2022-07-29T01:03:14;15.00;99.90
56512;DHT22;42408;53.238;5.686;2022-07-29T01:05:41;15.00;99.90
56512;DHT22;42408;53.238;5.686;2022-07-29T01:08:08;15.10;99.90
56512;DHT22;42408;53.238;5.686;2022-07-29T01:10:37;15.00;99.90
56512;DHT22;42408;53.238;5.686;2022-07-29T01:13:03;15.00;99.90
56512;DHT22;42408;53.238;5.686;2022-07-29T01:15:30;15.00;99.90
56512;DHT22;42408;53.238;5.686;2022-07-29T01:18:03;15.00;99.90
56512;DHT22;42408;53.238;5.686;2022-07-29T01:20:39;15.00;99.90
56512;DHT22;42408;53.238;5.686;2022-07-29T01:26:40;14.90;99.90
56512;DHT22;42408;53.238;5.686;2022-07-29T01:29:36;15.00;99.90
56512;DHT22;42408;53.238;5.686;2022-07-29T01:32:15;14.90;99.90
56512;DHT22;42408;53.238;5.686;2022-07-29T01:34:50;14.90;99.90
56512;DHT22;42408;53.238;5.686;2022-07-29T01:38:06;14.90;99.90
56512;DHT22;42408;53.238;5.686;2022-07-29T01:40:22;14.90;99.90
56512;DHT22;42408;53.238;5.686;2022-07-29T01:42:51;14.90;99.90
56512;DHT22;42408;53.238;5.686;2022-07-29T01:50:48;14.90;99.90
56512;DHT22;42408;53.238;5.686;2022-07-29T01:53:21;14.90;99.90
56512;DHT22;42408;53.238;5.686;2022-07-29T01:55:50;14.80;99.90
56512;DHT22;42408;53.238;5.686;2022-07-29T01:58:17;14.80;99.90
56512;DHT22;42408;53.238;5.686;2022-07-29T02:00:45;14.80;99.90
56512;DHT22;42408;53.238;5.686;2022-07-29T02:03:13;14.90;99.90
56512;DHT22;42408;53.238;5.686;2022-07-29T02:05:41;14.90;99.90
56512;DHT22;42408;53.238;5.686;2022-07-29T02:08:08;14.80;99.90
56512;DHT22;42408;53.238;5.686;2022-07-29T02:10:35;14.80;99.90
56512;DHT22;42408;53.238;5.686;2022-07-29T02:13:03;14.80;99.90
56512;DHT22;42408;53.238;5.686;2022-07-29T02:15:32;14.80;99.90
56512;DHT22;42408;53.238;5.686;2022-07-29T02:18:02;14.80;99.90
56512;DHT22;42408;53.238;5.686;2022-07-29T02:20:29;14.80;99.90
56512;DHT22;42408;53.238;5.686;2022-07-29T02:22:55;14.80;99.90
56512;DHT22;42408;53.238;5.686;2022-07-29T02:25:23;14.80;99.90
56512;DHT22;42408;53.238;5.686;2022-07-29T02:27:50;14.80;99.90
56512;DHT22;42408;53.238;5.686;2022-07-29T02:30:17;14.80;99.90
56512;DHT22;42408;53.238;5.686;2022-07-29T02:32:45;14.70;99.90
56512;DHT22;42408;53.238;5.686;2022-07-29T02:35:13;14.70;99.90
56512;DHT22;42408;53.238;5.686;2022-07-29T02:37:40;14.80;99.90
56512;DHT22;42408;53.238;5.686;2022-07-29T02:40:09;14.80;99.90
56512;DHT22;42408;53.238;5.686;2022-07-29T02:42:37;14.80;99.90
56512;DHT22;42408;53.238;5.686;2022-07-29T02:45:05;14.80;99.90
56512;DHT22;42408;53.238;5.686;2022-07-29T02:47:53;14.80;99.90
56512;DHT22;42408;53.238;5.686;2022-07-29T02:50:32;14.80;99.90
56512;DHT22;42408;53.238;5.686;2022-07-29T02:53:13;14.80;99.90
56512;DHT22;42408;53.238;5.686;2022-07-29T02:55:51;14.80;99.90
56512;DHT22;42408;53.238;5.686;2022-07-29T02:58:30;14.80;99.90
56512;DHT22;42408;53.238;5.686;2022-07-29T03:01:11;14.80;99.90
56512;DHT22;42408;53.238;5.686;2022-07-29T03:03:38;14.80;99.90
56512;DHT22;42408;53.238;5.686;2022-07-29T03:06:05;14.80;99.90
56512;DHT22;42408;53.238;5.686;2022-07-29T03:08:32;14.80;99.90
56512;DHT22;42408;53.238;5.686;2022-07-29T03:10:58;14.80;99.90
56512;DHT22;42408;53.238;5.686;2022-07-29T03:13:26;14.70;99.90
56512;DHT22;42408;53.238;5.686;2022-07-29T03:15:53;14.80;99.90
56512;DHT22;42408;53.238;5.686;2022-07-29T03:18:19;14.80;99.90
56512;DHT22;42408;53.238;5.686;2022-07-29T03:20:45;14.80;99.90
56512;DHT22;42408;53.238;5.686;2022-07-29T03:23:10;14.80;99.90
56512;DHT22;42408;53.238;5.686;2022-07-29T03:25:36;14.80;99.90
56512;DHT22;42408;53.238;5.686;2022-07-29T03:28:02;14.80;99.90
56512;DHT22;42408;53.238;5.686;2022-07-29T03:30:27;14.90;99.90
56512;DHT22;42408;53.238;5.686;2022-07-29T03:32:56;14.80;99.90
56512;DHT22;42408;53.238;5.686;2022-07-29T03:35:22;14.80;99.90
56512;DHT22;42408;53.238;5.686;2022-07-29T03:37:48;15.20;99.90
56512;DHT22;42408;53.238;5.686;2022-07-29T03:40:19;14.90;99.90
56512;DHT22;42408;53.238;5.686;2022-07-29T03:42:46;15.00;99.90
56512;DHT22;42408;53.238;5.686;2022-07-29T03:45:17;14.80;99.90
56512;DHT22;42408;53.238;5.686;2022-07-29T03:47:47;14.90;99.90
56512;DHT22;42408;53.238;5.686;2022-07-29T03:50:14;14.80;99.90
56512;DHT22;42408;53.238;5.686;2022-07-29T03:52:40;14.80;99.90
56512;DHT22;42408;53.238;5.686;2022-07-29T03:55:07;14.80;99.90
56512;DHT22;42408;53.238;5.686;2022-07-29T03:57:34;14.80;99.90
56512;DHT22;42408;53.238;5.686;2022-07-29T04:00:02;14.80;99.90
56512;DHT22;42408;53.238;5.686;2022-07-29T04:02:29;14.80;99.90
56512;DHT22;42408;53.238;5.686;2022-07-29T04:04:54;14.80;99.90
56512;DHT22;42408;53.238;5.686;2022-07-29T04:07:20;14.80;99.90
56512;DHT22;42408;53.238;5.686;2022-07-29T04:09:46;14.80;99.90
56512;DHT22;42408;53.238;5.686;2022-07-29T04:12:11;14.80;99.90
56512;DHT22;42408;53.238;5.686;2022-07-29T04:14:37;14.90;99.90
56512;DHT22;42408;53.238;5.686;2022-07-29T04:17:04;14.80;99.90
56512;DHT22;42408;53.238;5.686;2022-07-29T04:19:30;14.80;99.90
56512;DHT22;42408;53.238;5.686;2022-07-29T04:21:57;14.80;99.90
56512;DHT22;42408;53.238;5.686;2022-07-29T04:24:23;14.70;99.90
56512;DHT22;42408;53.238;5.686;2022-07-29T04:26:49;14.80;99.90
56512;DHT22;42408;53.238;5.686;2022-07-29T04:29:14;14.80;99.90
56512;DHT22;42408;53.238;5.686;2022-07-29T04:31:41;14.80;99.90
56512;DHT22;42408;53.238;5.686;2022-07-29T04:34:07;14.80;99.90
56512;DHT22;42408;53.238;5.686;2022-07-29T04:36:33;14.80;99.90
56512;DHT22;42408;53.238;5.686;2022-07-29T04:38:59;14.80;99.90
56512;DHT22;42408;53.238;5.686;2022-07-29T04:41:26;14.80;99.90
56512;DHT22;42408;53.238;5.686;2022-07-29T04:43:51;14.80;99.90
56512;DHT22;42408;53.238;5.686;2022-07-29T04:46:17;14.90;99.90
56512;DHT22;42408;53.238;5.686;2022-07-29T04:48:45;14.90;99.90
56512;DHT22;42408;53.238;5.686;2022-07-29T04:51:11;14.90;99.90
56512;DHT22;42408;53.238;5.686;2022-07-29T04:53:37;15.00;99.90
56512;DHT22;42408;53.238;5.686;2022-07-29T04:56:03;15.00;99.90
56512;DHT22;42408;53.238;5.686;2022-07-29T04:58:28;15.00;99.90
56512;DHT22;42408;53.238;5.686;2022-07-29T05:00:54;15.00;99.90
56512;DHT22;42408;53.238;5.686;2022-07-29T05:03:20;15.10;99.90
56512;DHT22;42408;53.238;5.686;2022-07-29T05:05:45;15.10;99.90
56512;DHT22;42408;53.238;5.686;2022-07-29T05:08:11;15.10;99.90
56512;DHT22;42408;53.238;5.686;2022-07-29T05:10:36;15.10;99.90
56512;DHT22;42408;53.238;5.686;2022-07-29T05:13:07;15.20;99.90
56512;DHT22;42408;53.238;5.686;2022-07-29T05:15:33;15.20;99.90
56512;DHT22;42408;53.238;5.686;2022-07-29T05:17:59;15.20;99.90
56512;DHT22;42408;53.238;5.686;2022-07-29T05:20:25;15.30;99.90
56512;DHT22;42408;53.238;5.686;2022-07-29T05:22:54;15.30;99.90
56512;DHT22;42408;53.238;5.686;2022-07-29T05:25:20;15.30;99.90
56512;DHT22;42408;53.238;5.686;2022-07-29T05:27:45;15.40;99.90
56512;DHT22;42408;53.238;5.686;2022-07-29T05:30:11;15.40;99.90
56512;DHT22;42408;53.238;5.686;2022-07-29T05:32:37;15.40;99.90
56512;DHT22;42408;53.238;5.686;2022-07-29T05:35:03;15.50;99.90
56512;DHT22;42408;53.238;5.686;2022-07-29T05:37:28;15.60;99.90
56512;DHT22;42408;53.238;5.686;2022-07-29T05:39:54;15.70;99.90
56512;DHT22;42408;53.238;5.686;2022-07-29T05:42:19;15.70;99.90
56512;DHT22;42408;53.238;5.686;2022-07-29T05:44:45;15.80;99.90
56512;DHT22;42408;53.238;5.686;2022-07-29T05:47:12;15.80;99.90
56512;DHT22;42408;53.238;5.686;2022-07-29T05:49:38;15.90;99.90
56512;DHT22;42408;53.238;5.686;2022-07-29T05:52:04;15.90;99.90
56512;DHT22;42408;53.238;5.686;2022-07-29T05:54:30;16.00;99.90
56512;DHT22;42408;53.238;5.686;2022-07-29T05:56:56;16.00;99.90
56512;DHT22;42408;53.238;5.686;2022-07-29T05:59:21;16.00;99.90
56512;DHT22;42408;53.238;5.686;2022-07-29T06:01:47;16.10;99.90
56512;DHT22;42408;53.238;5.686;2022-07-29T06:04:12;16.10;99.90
56512;DHT22;42408;53.238;5.686;2022-07-29T06:06:38;16.10;99.90
56512;DHT22;42408;53.238;5.686;2022-07-29T06:09:04;16.20;99.90
56512;DHT22;42408;53.238;5.686;2022-07-29T06:11:29;16.20;99.90
56512;DHT22;42408;53.238;5.686;2022-07-29T06:13:55;16.30;99.90
56512;DHT22;42408;53.238;5.686;2022-07-29T06:16:20;16.40;99.90
56512;DHT22;42408;53.238;5.686;2022-07-29T06:18:46;16.50;99.90
56512;DHT22;42408;53.238;5.686;2022-07-29T06:21:12;16.60;99.90
56512;DHT22;42408;53.238;5.686;2022-07-29T06:23:38;16.80;99.90
56512;DHT22;42408;53.238;5.686;2022-07-29T06:26:04;16.90;99.90
56512;DHT22;42408;53.238;5.686;2022-07-29T06:28:29;17.00;99.90
56512;DHT22;42408;53.238;5.686;2022-07-29T06:30:55;17.20;99.90
56512;DHT22;42408;53.238;5.686;2022-07-29T06:33:21;17.40;99.90
56512;DHT22;42408;53.238;5.686;2022-07-29T06:35:46;17.50;99.90
56512;DHT22;42408;53.238;5.686;2022-07-29T06:38:13;17.70;99.90
56512;DHT22;42408;53.238;5.686;2022-07-29T06:40:43;17.90;99.90
56512;DHT22;42408;53.238;5.686;2022-07-29T06:46:00;18.10;99.90
56512;DHT22;42408;53.238;5.686;2022-07-29T06:48:26;18.20;99.90
56512;DHT22;42408;53.238;5.686;2022-07-29T06:50:52;18.20;99.90
56512;DHT22;42408;53.238;5.686;2022-07-29T06:53:18;18.20;99.90
56512;DHT22;42408;53.238;5.686;2022-07-29T06:55:43;18.30;99.90
56512;DHT22;42408;53.238;5.686;2022-07-29T06:58:09;18.30;99.90
56512;DHT22;42408;53.238;5.686;2022-07-29T07:00:36;18.30;99.90
56512;DHT22;42408;53.238;5.686;2022-07-29T07:03:01;18.50;99.90
56512;DHT22;42408;53.238;5.686;2022-07-29T07:05:27;18.60;99.90
56512;DHT22;42408;53.238;5.686;2022-07-29T07:07:52;18.70;99.90
56512;DHT22;42408;53.238;5.686;2022-07-29T07:10:18;18.80;99.90
56512;DHT22;42408;53.238;5.686;2022-07-29T07:12:44;19.00;99.90
56512;DHT22;42408;53.238;5.686;2022-07-29T07:15:09;19.00;99.90
56512;DHT22;42408;53.238;5.686;2022-07-29T07:17:35;19.00;99.90
56512;DHT22;42408;53.238;5.686;2022-07-29T07:20:01;19.00;99.90
56512;DHT22;42408;53.238;5.686;2022-07-29T07:22:26;19.10;99.90
56512;DHT22;42408;53.238;5.686;2022-07-29T07:24:52;19.10;99.90
56512;DHT22;42408;53.238;5.686;2022-07-29T07:27:17;19.10;99.90
56512;DHT22;42408;53.238;5.686;2022-07-29T07:29:43;19.10;99.90
56512;DHT22;42408;53.238;5.686;2022-07-29T07:32:09;19.20;99.90
56512;DHT22;42408;53.238;5.686;2022-07-29T07:34:34;19.10;99.90
56512;DHT22;42408;53.238;5.686;2022-07-29T07:37:00;19.20;99.90
56512;DHT22;42408;53.238;5.686;2022-07-29T07:39:26;19.20;99.90
56512;DHT22;42408;53.238;5.686;2022-07-29T07:41:52;19.20;99.90
56512;DHT22;42408;53.238;5.686;2022-07-29T07:44:17;19.20;99.90
56512;DHT22;42408;53.238;5.686;2022-07-29T07:46:43;19.10;99.90
56512;DHT22;42408;53.238;5.686;2022-07-29T07:49:10;19.10;99.90
56512;DHT22;42408;53.238;5.686;2022-07-29T07:51:36;19.10;99.90
56512;DHT22;42408;53.238;5.686;2022-07-29T07:54:02;19.00;99.90
56512;DHT22;42408;53.238;5.686;2022-07-29T07:56:27;19.00;99.90
56512;DHT22;42408;53.238;5.686;2022-07-29T07:58:53;19.00;99.90
56512;DHT22;42408;53.238;5.686;2022-07-29T08:01:19;19.00;99.90
56512;DHT22;42408;53.238;5.686;2022-07-29T08:03:48;18.90;99.90
56512;DHT22;42408;53.238;5.686;2022-07-29T08:06:14;18.90;99.90
56512;DHT22;42408;53.238;5.686;2022-07-29T08:08:39;19.00;99.90
56512;DHT22;42408;53.238;5.686;2022-07-29T08:11:05;18.90;99.90
56512;DHT22;42408;53.238;5.686;2022-07-29T08:13:32;18.80;99.90
56512;DHT22;42408;53.238;5.686;2022-07-29T08:15:59;18.80;99.90
56512;DHT22;42408;53.238;5.686;2022-07-29T08:18:36;18.80;99.90
56512;DHT22;42408;53.238;5.686;2022-07-29T08:21:01;18.90;99.90
56512;DHT22;42408;53.238;5.686;2022-07-29T08:23:27;18.90;99.90
56512;DHT22;42408;53.238;5.686;2022-07-29T08:26:00;18.90;99.90
56512;DHT22;42408;53.238;5.686;2022-07-29T08:28:26;19.00;99.90
56512;DHT22;42408;53.238;5.686;2022-07-29T08:30:52;19.00;99.90
56512;DHT22;42408;53.238;5.686;2022-07-29T08:33:17;19.10;99.90
56512;DHT22;42408;53.238;5.686;2022-07-29T08:35:43;19.20;99.90
56512;DHT22;42408;53.238;5.686;2022-07-29T08:38:09;19.40;99.90
56512;DHT22;42408;53.238;5.686;2022-07-29T08:40:35;19.50;99.90
56512;DHT22;42408;53.238;5.686;2022-07-29T08:43:06;19.60;99.90
56512;DHT22;42408;53.238;5.686;2022-07-29T08:45:43;19.80;99.90
56512;DHT22;42408;53.238;5.686;2022-07-29T08:48:11;19.90;99.90
56512;DHT22;42408;53.238;5.686;2022-07-29T08:50:38;20.00;99.90
56512;DHT22;42408;53.238;5.686;2022-07-29T08:53:04;20.00;99.90
56512;DHT22;42408;53.238;5.686;2022-07-29T08:55:31;20.20;99.90
56512;DHT22;42408;53.238;5.686;2022-07-29T08:57:58;20.30;99.90
56512;DHT22;42408;53.238;5.686;2022-07-29T09:00:25;20.40;99.90
56512;DHT22;42408;53.238;5.686;2022-07-29T09:02:56;20.40;99.90
56512;DHT22;42408;53.238;5.686;2022-07-29T09:05:23;20.50;99.90
56512;DHT22;42408;53.238;5.686;2022-07-29T09:07:50;20.40;99.90
56512;DHT22;42408;53.238;5.686;2022-07-29T09:10:16;20.40;99.90
56512;DHT22;42408;53.238;5.686;2022-07-29T09:12:41;20.40;99.90
56512;DHT22;42408;53.238;5.686;2022-07-29T09:15:07;20.40;99.90
56512;DHT22;42408;53.238;5.686;2022-07-29T09:17:40;20.30;99.90
56512;DHT22;42408;53.238;5.686;2022-07-29T09:20:11;20.20;99.90
56512;DHT22;42408;53.238;5.686;2022-07-29T09:22:37;20.20;99.90
56512;DHT22;42408;53.238;5.686;2022-07-29T09:25:03;20.10;99.90
56512;DHT22;42408;53.238;5.686;2022-07-29T09:27:29;20.20;99.90
56512;DHT22;42408;53.238;5.686;2022-07-29T09:30:03;20.20;99.90
56512;DHT22;42408;53.238;5.686;2022-07-29T09:32:30;20.10;99.90
56512;DHT22;42408;53.238;5.686;2022-07-29T09:35:16;20.10;99.90
56512;DHT22;42408;53.238;5.686;2022-07-29T09:37:43;20.10;99.90
56512;DHT22;42408;53.238;5.686;2022-07-29T09:40:20;20.10;99.90
56512;DHT22;42408;53.238;5.686;2022-07-29T09:42:46;20.10;99.90
56512;DHT22;42408;53.238;5.686;2022-07-29T09:45:13;20.20;99.90
56512;DHT22;42408;53.238;5.686;2022-07-29T09:47:51;20.20;99.90
56512;DHT22;42408;53.238;5.686;2022-07-29T09:50:16;20.40;99.90
56512;DHT22;42408;53.238;5.686;2022-07-29T09:52:49;20.40;99.90
56512;DHT22;42408;53.238;5.686;2022-07-29T09:55:16;20.50;99.90
56512;DHT22;42408;53.238;5.686;2022-07-29T09:57:42;20.40;99.90
56512;DHT22;42408;53.238;5.686;2022-07-29T10:00:13;20.40;99.90
56512;DHT22;42408;53.238;5.686;2022-07-29T10:02:42;20.60;99.90
56512;DHT22;42408;53.238;5.686;2022-07-29T10:05:25;20.60;99.90
56512;DHT22;42408;53.238;5.686;2022-07-29T10:07:53;20.50;99.90
56512;DHT22;42408;53.238;5.686;2022-07-29T10:12:57;20.40;99.90
56512;DHT22;42408;53.238;5.686;2022-07-29T10:15:24;20.60;99.90
56512;DHT22;42408;53.238;5.686;2022-07-29T10:17:52;20.50;99.90
56512;DHT22;42408;53.238;5.686;2022-07-29T10:20:18;20.40;99.90
56512;DHT22;42408;53.238;5.686;2022-07-29T10:22:44;20.30;99.90
56512;DHT22;42408;53.238;5.686;2022-07-29T10:25:12;20.40;99.90
56512;DHT22;42408;53.238;5.686;2022-07-29T10:27:37;20.30;99.90
56512;DHT22;42408;53.238;5.686;2022-07-29T10:30:05;20.30;99.90
56512;DHT22;42408;53.238;5.686;2022-07-29T10:35:24;20.20;99.90
56512;DHT22;42408;53.238;5.686;2022-07-29T10:43:47;19.90;99.90
56512;DHT22;42408;53.238;5.686;2022-07-29T10:46:14;19.80;99.90
56512;DHT22;42408;53.238;5.686;2022-07-29T10:54:35;19.40;99.90
56512;DHT22;42408;53.238;5.686;2022-07-29T10:59:47;19.40;99.90
56512;DHT22;42408;53.238;5.686;2022-07-29T11:05:03;19.50;99.90
56512;DHT22;42408;53.238;5.686;2022-07-29T11:07:29;19.50;99.90
56512;DHT22;42408;53.238;5.686;2022-07-29T11:10:20;19.60;99.90
56512;DHT22;42408;53.238;5.686;2022-07-29T11:12:47;19.60;99.90
56512;DHT22;42408;53.238;5.686;2022-07-29T11:15:15;19.70;99.90
56512;DHT22;42408;53.238;5.686;2022-07-29T11:20:45;19.80;99.90
56512;DHT22;42408;53.238;5.686;2022-07-29T11:23:27;19.80;99.90
56512;DHT22;42408;53.238;5.686;2022-07-29T11:29:02;20.00;99.90
56512;DHT22;42408;53.238;5.686;2022-07-29T11:34:22;20.20;99.90
56512;DHT22;42408;53.238;5.686;2022-07-29T11:39:35;20.30;99.90
56512;DHT22;42408;53.238;5.686;2022-07-29T11:44:59;20.40;99.90
56512;DHT22;42408;53.238;5.686;2022-07-29T11:47:32;20.30;99.90
56512;DHT22;42408;53.238;5.686;2022-07-29T11:50:01;20.30;99.90
56512;DHT22;42408;53.238;5.686;2022-07-29T11:52:38;20.30;99.90
56512;DHT22;42408;53.238;5.686;2022-07-29T11:55:10;20.30;99.90
56512;DHT22;42408;53.238;5.686;2022-07-29T11:57:36;20.40;99.90
56512;DHT22;42408;53.238;5.686;2022-07-29T12:00:05;20.40;99.90
56512;DHT22;42408;53.238;5.686;2022-07-29T12:02:40;20.50;99.90
56512;DHT22;42408;53.238;5.686;2022-07-29T12:05:08;20.50;99.90
56512;DHT22;42408;53.238;5.686;2022-07-29T12:07:34;20.50;99.90
56512;DHT22;42408;53.238;5.686;2022-07-29T12:10:00;20.40;99.90
56512;DHT22;42408;53.238;5.686;2022-07-29T12:12:26;20.50;99.90
56512;DHT22;42408;53.238;5.686;2022-07-29T12:14:52;20.60;99.90
56512;DHT22;42408;53.238;5.686;2022-07-29T12:17:27;20.60;99.90
56512;DHT22;42408;53.238;5.686;2022-07-29T12:19:56;20.80;99.90
56512;DHT22;42408;53.238;5.686;2022-07-29T12:22:33;20.80;99.90
56512;DHT22;42408;53.238;5.686;2022-07-29T12:25:10;20.80;99.90
56512;DHT22;42408;53.238;5.686;2022-07-29T12:27:38;20.90;99.90
56512;DHT22;42408;53.238;5.686;2022-07-29T12:30:14;20.90;99.90
56512;DHT22;42408;53.238;5.686;2022-07-29T12:32:42;21.10;99.90
56512;DHT22;42408;53.238;5.686;2022-07-29T12:35:17;20.90;99.90
56512;DHT22;42408;53.238;5.686;2022-07-29T12:37:45;20.90;99.90
56512;DHT22;42408;53.238;5.686;2022-07-29T12:40:15;21.00;99.90
56512;DHT22;42408;53.238;5.686;2022-07-29T12:45:30;21.10;99.90
56512;DHT22;42408;53.238;5.686;2022-07-29T12:47:56;21.20;99.90
56512;DHT22;42408;53.238;5.686;2022-07-29T12:50:22;21.30;99.90
56512;DHT22;42408;53.238;5.686;2022-07-29T12:52:48;21.40;99.90
56512;DHT22;42408;53.238;5.686;2022-07-29T12:55:14;21.40;99.90
56512;DHT22;42408;53.238;5.686;2022-07-29T12:57:48;21.50;99.90
56512;DHT22;42408;53.238;5.686;2022-07-29T13:00:16;21.50;99.90
56512;DHT22;42408;53.238;5.686;2022-07-29T13:02:42;21.60;99.90
56512;DHT22;42408;53.238;5.686;2022-07-29T13:05:09;21.80;99.90
56512;DHT22;42408;53.238;5.686;2022-07-29T13:07:35;21.80;99.90
56512;DHT22;42408;53.238;5.686;2022-07-29T13:10:17;22.00;99.90
56512;DHT22;42408;53.238;5.686;2022-07-29T13:13:12;22.00;99.90
56512;DHT22;42408;53.238;5.686;2022-07-29T13:15:41;22.00;99.90
56512;DHT22;42408;53.238;5.686;2022-07-29T13:18:27;22.00;99.90
56512;DHT22;42408;53.238;5.686;2022-07-29T13:20:52;22.10;99.90
56512;DHT22;42408;53.238;5.686;2022-07-29T13:23:18;22.10;99.90
56512;DHT22;42408;53.238;5.686;2022-07-29T13:25:43;22.10;99.90
56512;DHT22;42408;53.238;5.686;2022-07-29T13:28:09;22.10;99.90
56512;DHT22;42408;53.238;5.686;2022-07-29T13:30:36;22.20;99.90
56512;DHT22;42408;53.238;5.686;2022-07-29T13:33:02;22.30;99.90
56512;DHT22;42408;53.238;5.686;2022-07-29T13:35:28;22.30;99.90
56512;DHT22;42408;53.238;5.686;2022-07-29T13:37:55;22.20;99.90
56512;DHT22;42408;53.238;5.686;2022-07-29T13:40:21;22.30;99.90
56512;DHT22;42408;53.238;5.686;2022-07-29T13:42:46;22.40;99.90
56512;DHT22;42408;53.238;5.686;2022-07-29T13:45:12;22.40;99.90
56512;DHT22;42408;53.238;5.686;2022-07-29T13:47:38;22.30;99.90
56512;DHT22;42408;53.238;5.686;2022-07-29T13:50:05;22.40;99.90
56512;DHT22;42408;53.238;5.686;2022-07-29T13:52:31;22.40;99.90
56512;DHT22;42408;53.238;5.686;2022-07-29T13:54:57;22.30;99.90
56512;DHT22;42408;53.238;5.686;2022-07-29T13:57:22;22.40;99.90
56512;DHT22;42408;53.238;5.686;2022-07-29T13:59:48;22.40;99.90
56512;DHT22;42408;53.238;5.686;2022-07-29T14:02:13;22.50;99.90
56512;DHT22;42408;53.238;5.686;2022-07-29T14:04:39;22.80;99.90
56512;DHT22;42408;53.238;5.686;2022-07-29T14:07:05;23.00;99.90
56512;DHT22;42408;53.238;5.686;2022-07-29T14:09:31;23.30;99.90
56512;DHT22;42408;53.238;5.686;2022-07-29T14:11:57;23.50;99.90
56512;DHT22;42408;53.238;5.686;2022-07-29T14:14:22;23.70;99.90
56512;DHT22;42408;53.238;5.686;2022-07-29T14:16:48;23.80;99.90
56512;DHT22;42408;53.238;5.686;2022-07-29T14:19:13;23.90;99.90
56512;DHT22;42408;53.238;5.686;2022-07-29T14:21:39;24.10;99.90
56512;DHT22;42408;53.238;5.686;2022-07-29T14:24:05;24.20;99.90
56512;DHT22;42408;53.238;5.686;2022-07-29T14:26:31;24.20;99.90
56512;DHT22;42408;53.238;5.686;2022-07-29T14:28:57;24.30;99.90
56512;DHT22;42408;53.238;5.686;2022-07-29T14:31:22;24.30;99.90
56512;DHT22;42408;53.238;5.686;2022-07-29T14:33:48;24.30;99.90
56512;DHT22;42408;53.238;5.686;2022-07-29T14:36:14;24.30;99.90
56512;DHT22;42408;53.238;5.686;2022-07-29T14:38:40;24.30;99.90
56512;DHT22;42408;53.238;5.686;2022-07-29T14:41:06;24.20;99.90
56512;DHT22;42408;53.238;5.686;2022-07-29T14:43:33;24.10;99.90
56512;DHT22;42408;53.238;5.686;2022-07-29T14:45:59;24.20;99.90
56512;DHT22;42408;53.238;5.686;2022-07-29T14:48:25;24.10;99.90
56512;DHT22;42408;53.238;5.686;2022-07-29T14:50:50;24.10;99.90
56512;DHT22;42408;53.238;5.686;2022-07-29T14:53:16;24.10;99.90
56512;DHT22;42408;53.238;5.686;2022-07-29T14:55:42;23.90;99.90
56512;DHT22;42408;53.238;5.686;2022-07-29T14:58:07;24.00;99.90
56512;DHT22;42408;53.238;5.686;2022-07-29T15:00:33;24.00;99.90
56512;DHT22;42408;53.238;5.686;2022-07-29T15:03:00;24.00;99.90
56512;DHT22;42408;53.238;5.686;2022-07-29T15:05:26;24.00;99.90
56512;DHT22;42408;53.238;5.686;2022-07-29T15:07:51;23.90;99.90
56512;DHT22;42408;53.238;5.686;2022-07-29T15:10:17;24.00;99.90
56512;DHT22;42408;53.238;5.686;2022-07-29T15:12:43;24.10;99.90
56512;DHT22;42408;53.238;5.686;2022-07-29T15:15:09;24.20;99.90
56512;DHT22;42408;53.238;5.686;2022-07-29T15:17:35;24.30;99.90
56512;DHT22;42408;53.238;5.686;2022-07-29T15:20:00;24.30;99.90
56512;DHT22;42408;53.238;5.686;2022-07-29T15:22:26;24.30;99.90
56512;DHT22;42408;53.238;5.686;2022-07-29T15:24:52;24.20;99.90
56512;DHT22;42408;53.238;5.686;2022-07-29T15:27:17;24.20;99.90
56512;DHT22;42408;53.238;5.686;2022-07-29T15:29:43;24.10;99.90
56512;DHT22;42408;53.238;5.686;2022-07-29T15:32:11;24.10;99.90
56512;DHT22;42408;53.238;5.686;2022-07-29T15:34:37;23.90;99.90
56512;DHT22;42408;53.238;5.686;2022-07-29T15:37:04;23.80;99.90
56512;DHT22;42408;53.238;5.686;2022-07-29T15:39:29;23.80;99.90
56512;DHT22;42408;53.238;5.686;2022-07-29T15:41:58;23.70;99.90
56512;DHT22;42408;53.238;5.686;2022-07-29T15:44:26;23.60;99.90
56512;DHT22;42408;53.238;5.686;2022-07-29T15:46:52;23.50;99.90
56512;DHT22;42408;53.238;5.686;2022-07-29T15:49:34;23.40;99.90
56512;DHT22;42408;53.238;5.686;2022-07-29T15:52:07;23.30;99.90
56512;DHT22;42408;53.238;5.686;2022-07-29T15:54:37;23.20;99.90
56512;DHT22;42408;53.238;5.686;2022-07-29T15:57:04;23.30;99.90
56512;DHT22;42408;53.238;5.686;2022-07-29T15:59:33;23.40;99.90
56512;DHT22;42408;53.238;5.686;2022-07-29T16:01:59;23.50;99.90
56512;DHT22;42408;53.238;5.686;2022-07-29T16:04:25;23.50;99.90
56512;DHT22;42408;53.238;5.686;2022-07-29T16:06:51;23.50;99.90
56512;DHT22;42408;53.238;5.686;2022-07-29T16:09:17;23.50;99.90
56512;DHT22;42408;53.238;5.686;2022-07-29T16:11:43;23.60;99.90
56512;DHT22;42408;53.238;5.686;2022-07-29T16:14:11;23.60;99.90
56512;DHT22;42408;53.238;5.686;2022-07-29T16:16:37;23.60;99.90
56512;DHT22;42408;53.238;5.686;2022-07-29T16:19:04;23.70;99.90
56512;DHT22;42408;53.238;5.686;2022-07-29T16:21:29;23.60;99.90
56512;DHT22;42408;53.238;5.686;2022-07-29T16:23:57;23.70;99.90
56512;DHT22;42408;53.238;5.686;2022-07-29T16:26:23;23.70;99.90